createdAt,value
2019-06-10T00:01:04.243Z,16.20
2019-06-10T00:03:51.754Z,16.30
2019-06-10T00:06:41.550Z,16.20
2019-06-10T00:09:31.246Z,16.20
2019-06-10T00:12:21.022Z,16.10
2019-06-10T00:15:10.921Z,16.00
2019-06-10T00:18:20.780Z,15.90
2019-06-10T00:20:51.225Z,15.80
2019-06-10T00:23:41.249Z,15.80
2019-06-10T00:26:31.233Z,15.80
2019-06-10T00:29:22.328Z,15.60
2019-06-10T00:32:12.762Z,15.60
2019-06-10T00:35:02.852Z,15.60
2019-06-10T00:37:51.206Z,15.50
2019-06-10T00:40:41.432Z,15.50
2019-06-10T00:43:30.634Z,15.50
2019-06-10T00:46:21.183Z,15.50
2019-06-10T00:49:14.391Z,15.40
2019-06-10T00:52:03.994Z,15.40
2019-06-10T00:54:51.983Z,15.50
2019-06-10T00:57:41.859Z,15.60
2019-06-10T01:00:31.751Z,15.70
2019-06-10T01:03:20.913Z,15.70
2019-06-10T01:06:13.080Z,15.80
2019-06-10T01:09:00.691Z,15.70
2019-06-10T01:11:51.841Z,15.60
2019-06-10T01:14:41.210Z,15.60
2019-06-10T01:17:31.147Z,15.50
2019-06-10T01:20:21.070Z,15.50
2019-06-10T01:23:13.505Z,15.50
2019-06-10T01:26:01.567Z,15.60
2019-06-10T01:28:51.616Z,15.50
2019-06-10T01:31:41.956Z,15.40
2019-06-10T01:34:31.082Z,15.30
2019-06-10T01:37:21.829Z,15.40
2019-06-10T01:40:13.092Z,15.40
2019-06-10T01:43:01.051Z,15.40
2019-06-10T01:45:51.093Z,15.20
2019-06-10T01:48:45.020Z,15.10
2019-06-10T01:51:31.685Z,15.00
2019-06-10T01:54:21.355Z,15.10
2019-06-10T01:57:11.976Z,15.10
2019-06-10T02:00:00.956Z,15.10
2019-06-10T02:02:52.427Z,15.00
2019-06-10T02:05:41.967Z,15.10
2019-06-10T02:08:31.644Z,15.00
2019-06-10T02:11:23.418Z,15.10
2019-06-10T02:14:14.385Z,15.00
2019-06-10T02:17:01.208Z,15.00
2019-06-10T02:19:50.852Z,15.00
2019-06-10T02:22:41.089Z,15.00
2019-06-10T02:25:31.192Z,15.00
2019-06-10T02:28:22.047Z,15.10
2019-06-10T02:31:14.239Z,15.20
2019-06-10T02:34:02.536Z,15.30
2019-06-10T02:36:53.421Z,15.30
2019-06-10T02:39:43.767Z,15.30
2019-06-10T02:42:38.807Z,15.30
2019-06-10T02:45:36.274Z,15.30
2019-06-10T02:48:21.298Z,15.40
2019-06-10T02:51:08.426Z,15.40
2019-06-10T02:53:57.364Z,15.40
2019-06-10T02:56:46.452Z,15.40
2019-06-10T02:59:36.427Z,15.50
2019-06-10T03:02:31.226Z,15.50
2019-06-10T03:05:17.038Z,15.60
2019-06-10T03:08:05.323Z,15.70
2019-06-10T03:10:54.778Z,15.80
2019-06-10T03:13:43.667Z,15.90
2019-06-10T03:16:42.186Z,16.00
2019-06-10T03:19:46.539Z,16.10
2019-06-10T03:22:22.986Z,16.10
2019-06-10T03:25:13.118Z,16.10
2019-06-10T03:28:03.067Z,16.20
2019-06-10T03:30:55.234Z,16.20
2019-06-10T03:33:47.019Z,16.20
2019-06-10T03:36:32.242Z,16.20
2019-06-10T03:39:23.397Z,16.20
2019-06-10T03:42:12.644Z,16.20
2019-06-10T03:45:03.305Z,16.20
2019-06-10T03:47:52.731Z,16.30
2019-06-10T03:50:43.160Z,16.30
2019-06-10T03:53:33.760Z,16.40
2019-06-10T03:56:23.810Z,16.40
2019-06-10T03:59:12.516Z,16.40
2019-06-10T04:02:02.320Z,16.40
2019-06-10T04:04:52.356Z,16.50
2019-06-10T04:07:42.760Z,16.60
2019-06-10T04:10:32.472Z,16.70
2019-06-10T04:13:23.665Z,16.80
2019-06-10T04:16:13.030Z,16.80
2019-06-10T04:19:02.549Z,16.80
2019-06-10T04:21:53.236Z,16.90
2019-06-10T04:24:43.119Z,16.80
2019-06-10T04:27:32.843Z,16.80
2019-06-10T04:30:24.599Z,16.70
2019-06-10T04:33:12.657Z,16.70
2019-06-10T04:36:02.853Z,16.70
2019-06-10T04:38:52.580Z,16.70
2019-06-10T04:41:42.599Z,16.70
2019-06-10T04:44:32.967Z,16.80
2019-06-10T04:47:23.775Z,16.80
2019-06-10T04:50:24.007Z,16.90
2019-06-10T04:53:02.286Z,17.00
2019-06-10T04:55:52.306Z,17.10
2019-06-10T04:58:43.371Z,17.10
2019-06-10T05:01:33.583Z,17.20
2019-06-10T05:04:24.035Z,17.10
2019-06-10T05:07:12.838Z,17.10
2019-06-10T05:10:03.238Z,17.10
2019-06-10T05:12:52.610Z,17.20
2019-06-10T05:15:43.386Z,17.10
2019-06-10T05:18:33.289Z,17.20
2019-06-10T05:21:24.756Z,17.20
2019-06-10T05:24:12.443Z,17.40
2019-06-10T05:27:02.115Z,17.50
2019-06-10T05:29:52.728Z,17.60
2019-06-10T05:32:42.975Z,17.60
2019-06-10T05:35:33.770Z,17.70
2019-06-10T05:38:23.365Z,17.70
2019-06-10T05:41:13.336Z,17.80
2019-06-10T05:44:02.671Z,17.90
2019-06-10T05:46:52.832Z,18.00
2019-06-10T05:49:43.057Z,18.20
2019-06-10T05:52:33.842Z,18.30
2019-06-10T05:55:22.814Z,18.30
2019-06-10T05:58:12.884Z,18.30
2019-06-10T06:01:02.809Z,18.30
2019-06-10T06:03:52.909Z,18.50
2019-06-10T06:06:44.991Z,18.60
2019-06-10T06:09:33.865Z,18.50
2019-06-10T06:12:22.714Z,18.60
2019-06-10T06:15:12.977Z,18.70
2019-06-10T06:18:09.845Z,18.80
2019-06-10T06:20:52.623Z,18.90
2019-06-10T06:23:43.460Z,19.00
2019-06-10T06:26:36.470Z,19.10
2019-06-10T06:29:22.218Z,18.90
2019-06-10T06:32:13.050Z,19.10
2019-06-10T06:35:02.099Z,19.30
2019-06-10T06:37:53.965Z,19.40
2019-06-10T06:40:43.549Z,19.50
2019-06-10T06:43:36.412Z,19.60
2019-06-10T06:46:23.400Z,19.70
2019-06-10T06:49:12.792Z,19.70
2019-06-10T06:52:02.993Z,19.60
2019-06-10T06:54:53.032Z,19.60
2019-06-10T06:57:43.492Z,19.60
2019-06-10T07:00:51.018Z,19.60
2019-06-10T07:03:25.834Z,19.70
2019-06-10T07:06:23.568Z,19.80
2019-06-10T07:09:13.453Z,19.80
2019-06-10T07:12:04.302Z,19.80
2019-06-10T07:14:53.973Z,19.90
2019-06-10T07:17:45.580Z,20.10
2019-06-10T07:20:33.795Z,20.10
2019-06-10T07:23:22.653Z,20.20
2019-06-10T07:26:12.782Z,20.20
2019-06-10T07:29:02.924Z,20.20
2019-06-10T07:31:53.539Z,20.30
2019-06-10T07:34:42.263Z,20.30
2019-06-10T07:37:32.761Z,20.40
2019-06-10T07:40:22.253Z,20.40
2019-06-10T07:43:12.852Z,20.50
2019-06-10T07:46:03.464Z,20.50
2019-06-10T07:48:56.038Z,20.50
2019-06-10T07:51:44.301Z,20.60
2019-06-10T07:54:33.261Z,20.50
2019-06-10T07:57:22.595Z,20.60
2019-06-10T08:00:12.525Z,20.60
2019-06-10T08:03:02.501Z,20.70
2019-06-10T08:05:52.587Z,20.80
2019-06-10T08:08:43.921Z,20.80
2019-06-10T08:11:33.258Z,20.80
2019-06-10T08:14:22.265Z,20.90
2019-06-10T08:17:12.927Z,20.90
2019-06-10T08:20:02.533Z,21.00
2019-06-10T08:22:57.446Z,21.00
2019-06-10T08:25:46.776Z,21.10
2019-06-10T08:28:33.228Z,21.20
2019-06-10T08:31:22.767Z,21.30
2019-06-10T08:34:13.434Z,21.30
2019-06-10T08:37:04.257Z,21.30
2019-06-10T08:39:53.071Z,21.30
2019-06-10T08:42:44.217Z,21.40
2019-06-10T08:45:33.304Z,21.50
2019-06-10T08:48:23.029Z,21.50
2019-06-10T08:51:12.478Z,21.60
2019-06-10T08:54:02.365Z,21.60
2019-06-10T08:56:54.055Z,21.80
2019-06-10T08:59:44.778Z,22.00
2019-06-10T09:02:33.288Z,22.00
2019-06-10T09:05:23.244Z,21.90
2019-06-10T09:08:13.030Z,22.00
2019-06-10T09:11:03.591Z,22.00
2019-06-10T09:13:55.405Z,22.10
2019-06-10T09:16:47.015Z,22.10
2019-06-10T09:19:34.526Z,22.20
2019-06-10T09:22:25.890Z,22.30
2019-06-10T09:25:14.829Z,22.20
2019-06-10T09:28:03.799Z,22.20
2019-06-10T09:30:58.895Z,22.20
2019-06-10T09:33:50.258Z,22.30
2019-06-10T09:36:37.640Z,22.40
2019-06-10T09:39:27.348Z,22.50
2019-06-10T09:42:16.087Z,22.50
2019-06-10T09:45:08.084Z,22.40
2019-06-10T09:48:00.041Z,22.40
2019-06-10T09:50:50.947Z,22.40
2019-06-10T09:53:42.813Z,22.50
2019-06-10T09:56:27.154Z,22.50
2019-06-10T09:59:16.471Z,22.50
2019-06-10T10:02:07.039Z,22.50
2019-06-10T10:04:58.425Z,22.50
2019-06-10T10:07:48.900Z,22.50
2019-06-10T10:10:37.723Z,22.70
2019-06-10T10:13:26.698Z,22.80
2019-06-10T10:16:15.644Z,22.80
2019-06-10T10:19:05.494Z,22.90
2019-06-10T10:21:58.149Z,23.00
2019-06-10T10:24:45.869Z,22.90
2019-06-10T10:27:34.940Z,23.00
2019-06-10T10:30:27.955Z,23.20
2019-06-10T10:33:16.434Z,23.30
2019-06-10T10:36:05.306Z,23.30
2019-06-10T10:38:53.816Z,23.20
2019-06-10T10:41:44.495Z,23.40
2019-06-10T10:44:32.431Z,23.50
2019-06-10T10:47:25.183Z,23.70
2019-06-10T10:50:13.996Z,23.80
2019-06-10T10:53:03.422Z,24.00
2019-06-10T10:55:53.484Z,24.00
2019-06-10T10:58:43.676Z,24.00
2019-06-10T11:01:33.292Z,24.20
2019-06-10T11:04:23.213Z,24.10
2019-06-10T11:07:12.958Z,23.90
2019-06-10T11:10:04.403Z,23.90
2019-06-10T11:12:54.130Z,24.00
2019-06-10T11:15:43.430Z,24.10
2019-06-10T11:18:34.024Z,24.20
2019-06-10T11:21:23.778Z,24.20
2019-06-10T11:24:14.518Z,24.30
2019-06-10T11:27:03.156Z,24.40
2019-06-10T11:29:53.578Z,24.40
2019-06-10T11:32:43.230Z,24.50
2019-06-10T11:35:32.399Z,24.50
2019-06-10T11:38:23.293Z,24.50
2019-06-10T11:41:13.634Z,24.50
2019-06-10T11:44:02.115Z,24.50
2019-06-10T11:46:53.976Z,24.70
2019-06-10T11:49:43.442Z,24.80
2019-06-10T11:52:33.500Z,24.90
2019-06-10T11:55:21.389Z,24.80
2019-06-10T11:58:10.399Z,24.80
2019-06-10T12:01:00.674Z,24.90
2019-06-10T12:03:51.114Z,25.00
2019-06-10T12:06:39.771Z,25.10
2019-06-10T12:09:28.130Z,24.90
2019-06-10T12:12:16.836Z,24.80
2019-06-10T12:15:12.005Z,24.80
2019-06-10T12:18:05.944Z,25.00
2019-06-10T12:20:51.578Z,25.00
2019-06-10T12:23:43.240Z,24.90
2019-06-10T12:26:32.826Z,24.60
2019-06-10T12:29:22.520Z,24.70
2019-06-10T12:32:13.365Z,24.80
2019-06-10T12:35:05.005Z,25.10
2019-06-10T12:37:51.914Z,25.30
2019-06-10T12:40:42.805Z,25.30
2019-06-10T12:43:32.594Z,25.30
2019-06-10T12:46:23.209Z,25.20
2019-06-10T12:49:13.095Z,25.30
2019-06-10T12:52:07.218Z,25.50
2019-06-10T12:54:53.330Z,25.50
2019-06-10T12:57:42.839Z,25.60
2019-06-10T13:00:35.148Z,25.80
2019-06-10T13:03:23.943Z,25.90
2019-06-10T13:06:15.075Z,25.60
2019-06-10T13:09:06.387Z,25.60
2019-06-10T13:11:55.700Z,25.60
2019-06-10T13:14:44.224Z,25.50
2019-06-10T13:17:33.297Z,25.30
2019-06-10T13:20:22.948Z,25.40
2019-06-10T13:23:20.387Z,25.40
2019-06-10T13:26:07.868Z,25.40
2019-06-10T13:28:52.464Z,25.30
2019-06-10T13:31:43.492Z,25.20
2019-06-10T13:34:32.429Z,25.20
2019-06-10T13:37:22.833Z,25.20
2019-06-10T13:40:13.929Z,25.30
2019-06-10T13:43:03.840Z,25.40
2019-06-10T13:45:53.288Z,25.50
2019-06-10T13:48:43.104Z,25.50
2019-06-10T13:51:32.321Z,25.50
2019-06-10T13:54:22.597Z,25.50
2019-06-10T13:57:13.715Z,25.70
2019-06-10T14:00:04.256Z,25.90
2019-06-10T14:02:52.286Z,26.00
2019-06-10T14:05:44.770Z,26.10
2019-06-10T14:08:32.442Z,26.30
2019-06-10T14:11:22.070Z,26.30
2019-06-10T14:14:14.061Z,26.10
2019-06-10T14:17:01.273Z,25.90
2019-06-10T14:19:50.465Z,25.60
2019-06-10T14:22:39.306Z,25.50
2019-06-10T14:25:27.912Z,25.30
2019-06-10T14:28:37.794Z,25.10
2019-06-10T14:31:29.019Z,25.10
2019-06-10T14:33:56.859Z,25.00
2019-06-10T14:36:45.711Z,25.00
2019-06-10T14:39:34.799Z,25.00
2019-06-10T14:42:23.283Z,25.00
2019-06-10T14:45:13.920Z,24.90
2019-06-10T14:48:02.936Z,24.90
2019-06-10T14:50:51.883Z,24.80
2019-06-10T14:53:42.527Z,24.70
2019-06-10T14:56:30.293Z,24.70
2019-06-10T14:59:19.135Z,24.70
2019-06-10T15:02:07.771Z,24.70
2019-06-10T15:04:56.610Z,24.80
2019-06-10T15:07:45.405Z,24.90
2019-06-10T15:10:34.059Z,24.80
2019-06-10T15:13:23.708Z,24.90
2019-06-10T15:16:12.435Z,25.00
2019-06-10T15:19:13.775Z,25.10
2019-06-10T15:21:52.369Z,25.10
2019-06-10T15:24:42.815Z,25.00
2019-06-10T15:27:33.869Z,25.00
2019-06-10T15:30:26.529Z,25.00
2019-06-10T15:33:14.700Z,24.90
2019-06-10T15:36:02.300Z,24.90
2019-06-10T15:38:52.499Z,24.90
2019-06-10T15:41:42.852Z,24.90
2019-06-10T15:44:48.506Z,24.80
2019-06-10T15:47:26.282Z,24.80
2019-06-10T15:50:13.152Z,24.80
2019-06-10T15:53:03.198Z,24.80
2019-06-10T15:58:43.028Z,25.00
2019-06-10T16:01:32.655Z,24.90
2019-06-10T16:04:25.150Z,24.80
2019-06-10T16:07:14.473Z,24.70
2019-06-10T16:10:02.958Z,24.50
2019-06-10T16:12:52.744Z,24.50
2019-06-10T16:15:43.418Z,24.40
2019-06-10T16:18:32.970Z,24.40
2019-06-10T16:21:22.045Z,24.30
2019-06-10T16:24:13.140Z,24.30
2019-06-10T16:27:03.167Z,24.20
2019-06-10T16:29:52.881Z,24.30
2019-06-10T16:32:40.304Z,24.20
2019-06-10T16:35:32.272Z,24.10
2019-06-10T16:38:23.817Z,24.20
2019-06-10T16:41:12.354Z,24.10
2019-06-10T16:44:03.025Z,24.00
2019-06-10T16:46:52.711Z,24.10
2019-06-10T16:49:42.886Z,24.10
2019-06-10T16:52:34.086Z,24.10
2019-06-10T16:55:22.647Z,24.10
2019-06-10T16:58:13.026Z,24.00
2019-06-10T17:01:03.526Z,23.90
2019-06-10T17:03:52.616Z,23.80
2019-06-10T17:06:42.193Z,23.60
2019-06-10T17:09:32.826Z,23.50
2019-06-10T17:12:23.268Z,23.50
2019-06-10T17:15:13.022Z,23.50
2019-06-10T17:18:02.847Z,23.30
2019-06-10T17:20:53.542Z,23.30
2019-06-10T17:23:43.402Z,23.30
2019-06-10T17:26:37.721Z,23.30
2019-06-10T17:29:25.222Z,23.30
2019-06-10T17:32:13.274Z,23.30
2019-06-10T17:35:02.418Z,23.30
2019-06-10T17:37:52.300Z,23.20
2019-06-10T17:40:42.460Z,23.20
2019-06-10T17:43:33.974Z,23.20
2019-06-10T17:46:21.763Z,23.10
2019-06-10T17:49:12.918Z,22.80
2019-06-10T17:52:02.568Z,22.80
2019-06-10T17:54:52.559Z,22.80
2019-06-10T17:57:42.946Z,22.80
2019-06-10T18:00:36.053Z,22.70
2019-06-10T18:03:23.254Z,22.70
2019-06-10T18:06:13.341Z,22.70
2019-06-10T18:09:04.067Z,22.70
2019-06-10T18:11:53.455Z,22.60
2019-06-10T18:14:43.032Z,22.60
2019-06-10T18:17:34.809Z,22.60
2019-06-10T18:20:22.705Z,22.60
2019-06-10T18:23:13.416Z,22.60
2019-06-10T18:26:03.222Z,22.60
2019-06-10T18:29:02.079Z,22.70
2019-06-10T18:31:42.824Z,22.70
2019-06-10T18:34:34.633Z,22.60
2019-06-10T18:40:35.912Z,22.60
2019-06-10T18:43:24.211Z,22.60
2019-06-10T18:46:12.927Z,22.50
2019-06-10T18:49:02.759Z,22.50
2019-06-10T18:51:53.227Z,22.40
2019-06-10T18:54:43.508Z,22.30
2019-06-10T18:57:33.532Z,22.40
2019-06-10T19:00:22.961Z,22.40
2019-06-10T19:03:16.555Z,22.40
2019-06-10T19:06:03.021Z,22.30
2019-06-10T19:08:53.065Z,22.30
2019-06-10T19:11:43.324Z,22.20
2019-06-10T19:14:33.577Z,22.10
2019-06-10T19:17:23.174Z,22.00
2019-06-10T19:20:13.044Z,22.00
2019-06-10T19:23:02.431Z,21.90
2019-06-10T19:25:52.414Z,21.80
2019-06-10T19:28:44.786Z,21.70
2019-06-10T19:31:34.251Z,21.60
2019-06-10T19:34:22.534Z,21.60
2019-06-10T19:37:12.862Z,21.60
2019-06-10T19:40:01.419Z,21.60
2019-06-10T19:42:49.854Z,21.70
2019-06-10T19:45:38.296Z,21.60
2019-06-10T19:48:27.128Z,21.50
2019-06-10T19:51:15.576Z,21.40
2019-06-10T19:54:04.300Z,21.50
2019-06-10T19:56:52.686Z,21.40
2019-06-10T20:00:02.837Z,21.40
2019-06-10T20:02:32.996Z,21.40
2019-06-10T20:05:21.567Z,21.30
2019-06-10T20:08:12.112Z,21.30
2019-06-10T20:11:00.385Z,21.30
2019-06-10T20:13:49.756Z,21.30
2019-06-10T20:16:39.674Z,21.30
2019-06-10T20:19:28.572Z,21.30
2019-06-10T20:22:18.832Z,21.30
2019-06-10T20:25:07.271Z,21.20
2019-06-10T20:27:55.916Z,21.30
2019-06-10T20:30:48.665Z,21.20
2019-06-10T20:33:39.330Z,21.20
2019-06-10T20:36:27.513Z,21.20
2019-06-10T20:39:16.315Z,21.10
2019-06-10T20:42:05.096Z,21.10
2019-06-10T20:44:53.721Z,21.10
2019-06-10T20:47:44.645Z,21.10
2019-06-10T20:50:32.351Z,21.10
2019-06-10T20:53:21.212Z,21.20
2019-06-10T20:56:12.349Z,21.30
2019-06-10T20:59:02.628Z,21.30
2019-06-10T21:01:52.958Z,21.30
2019-06-10T21:04:41.668Z,21.30
2019-06-10T21:07:32.387Z,21.30
2019-06-10T21:10:24.098Z,21.30
2019-06-10T21:13:16.208Z,21.20
2019-06-10T21:16:04.788Z,21.20
2019-06-10T21:18:55.396Z,21.10
2019-06-10T21:21:45.648Z,21.00
2019-06-10T21:24:33.702Z,21.00
2019-06-10T21:27:23.792Z,21.00
2019-06-10T21:30:13.700Z,20.90
2019-06-10T21:33:03.371Z,20.80
2019-06-10T21:35:54.818Z,20.80
2019-06-10T21:38:44.328Z,20.80
2019-06-10T21:41:32.046Z,20.70
2019-06-10T21:44:23.158Z,20.60
2019-06-10T21:47:12.950Z,20.60
2019-06-10T21:50:01.096Z,20.60
2019-06-10T21:52:51.091Z,20.50
2019-06-10T21:55:43.706Z,20.60
2019-06-10T21:58:32.998Z,20.60
2019-06-10T22:01:22.494Z,20.50
2019-06-10T22:04:13.343Z,20.50
2019-06-10T22:07:03.145Z,20.50
2019-06-10T22:09:54.098Z,20.50
2019-06-10T22:12:42.314Z,20.50
2019-06-10T22:15:33.139Z,20.50
2019-06-10T22:18:22.772Z,20.40
2019-06-10T22:21:10.635Z,20.40
2019-06-10T22:23:59.118Z,20.30
2019-06-10T22:26:47.822Z,20.30
2019-06-10T22:29:37.692Z,20.30
2019-06-10T22:32:26.436Z,20.30
2019-06-10T22:35:15.119Z,20.30
2019-06-10T22:38:03.835Z,20.20
2019-06-10T22:40:55.011Z,20.30
2019-06-10T22:43:42.720Z,20.30
2019-06-10T22:46:32.125Z,20.30
2019-06-10T22:49:20.609Z,20.30
2019-06-10T22:52:09.352Z,20.40
2019-06-10T22:54:58.639Z,20.40
2019-06-10T22:57:48.663Z,20.40
2019-06-10T23:00:37.604Z,20.40
2019-06-10T23:03:26.009Z,20.50
2019-06-10T23:06:14.747Z,20.40
2019-06-10T23:09:04.466Z,20.30
2019-06-10T23:11:55.919Z,20.30
2019-06-10T23:14:43.734Z,20.30
2019-06-10T23:17:32.527Z,20.30
2019-06-10T23:20:21.172Z,20.20
2019-06-10T23:23:12.417Z,20.20
2019-06-10T23:26:00.643Z,20.20
2019-06-10T23:28:49.932Z,20.30
2019-06-10T23:31:51.461Z,20.20
2019-06-10T23:34:29.900Z,20.20
2019-06-10T23:37:18.702Z,20.30
2019-06-10T23:40:07.328Z,20.40
2019-06-10T23:42:57.063Z,20.40
2019-06-10T23:45:45.651Z,20.40
2019-06-10T23:48:34.207Z,20.40
2019-06-10T23:51:23.020Z,20.40
2019-06-10T23:54:12.628Z,20.40
2019-06-10T23:57:03.965Z,20.40
2019-06-10T23:59:52.460Z,20.50
